Latest METARs, TAFs and NOTAMs for ETSI


---------------------------------------------------------------------------
	(OBSERVATIONS)
ETSI 071920Z AUTO 13003KT 5000 // ////// M02/M03 Q1036 ///=
ETSI 071820Z AUTO 20002KT 6000 // ////// M02/M03 Q1035 ///=
ETSI 071720Z 20001KT 3200 BR OVC004 M02/M03 Q1035 YLO FCST CANCEL=
---------------------------------------------------------------------------
	(FC)
TAF AMD ETSI 071656Z 0715/0724 15003KT 4000 BR OVC004 BKN250
     BECMG 0715/0717 VRB02KT 1500 BR OVC002 BKN180 CANCEL 1720=
---------------------------------------------------------------------------
	(TERMINAL AREA FORECAST)
AMD ETSI 071656Z 0715/0724 15003KT 4000 BR OVC004 BKN250
    BECMG  0715/0717 VRB02KT 1500 BR OVC002 BKN180
    CANCEL 1720=
---------------------------------------------------------------------------
	(NOTAMS)


ETSI M1193/16 INGOLSTADT NDB IGL 345KHZ LTD, RATED COVERAGE 22NM.
    19 SEP 12:23 2016 UNTIL 23 DEC 12:00 2016. CREATED: 19 SEP
    12:49 2016

ETSI P6955/16 AD MIL OPENING HOURS CHANGED TO: MON-THU 0800-1500
    FR 0800-1200. 31 OCT 08:00 2016 UNTIL 23 DEC 12:00 2016.
    CREATED: 24 OCT 07:35 2016

ETSI P7907/16 RWY25R CABLE NO.2 OUT OF SERVICE. 28 NOV 14:03
    2016 UNTIL 09 JAN 15:00 2017. CREATED: 28 NOV 14:08 2016

ETSI P7934/16 PAPI 25R RIGHT SIDE NOT FLIGHT CHECKED. 29 NOV
    13:23 2016 UNTIL 24 FEB 13:00 2017. CREATED: 29 NOV 13:32
    2016

ETSI P7935/16 TACAN APCH RWY07R SUSPENDED. 29 NOV 13:24 2016
    UNTIL 24 FEB 13:00 2017. CREATED: 29 NOV 13:33 2016

ETSI P7936/16 PAR RWY25L/07R OUT OF SERVICE. 29 NOV 13:25 2016
    UNTIL 24 FEB 13:00 2017. CREATED: 29 NOV 13:35 2016

ETSI P7937/16 PAR RWY25R/07L OUT OF SERVICE. 29 NOV 13:26 2016
    UNTIL 24 FEB 13:00 2017. CREATED: 29 NOV 13:36 2016

ETSI P7938/16 NO SRA POSSIBLE. 29 NOV 13:27 2016 UNTIL 24 FEB
    13:00 2017. CREATED: 29 NOV 13:37 2016

ETSI P7939/16 LIMITED RADAR COVERAGE BELOW 5000FT MSL. DETAILED
    INFORMATION BY INGO RADAR. 29 NOV 13:27 2016 UNTIL 24 FEB
    13:00 2017. CREATED: 29 NOV 13:38 2016

ETSI P8046/16 PAPI 25L LEFT SIDE UNRELIABLE. 05 DEC 11:26 2016
    UNTIL 09 JAN 15:00 2017. CREATED: 02 DEC 11:30 2016

ETSI P8068/16 RWY25L CABLE NO.1 AND NO.3 OUT OF SERVICE. 05 DEC
    11:11 2016 UNTIL 09 JAN 15:00 2017. CREATED: 05 DEC 11:15
    2016

---------------------------------------------------------------------------